Pagrindinis puslapis
METAR-TAF:

METAR-TAF

Oro uostai :

Lar, Iranas

platuma: 27-40-26N, ilguma: 054-22-53E, Aukštis: 792 m

Dabartinis oras

Ataskaita buvo paskelbta 22 minutes, ne 10:00 UTC
Vėjas 4 kt iš Vakarų/Pietvakarių
Temperatūra 32°C
Drėgmė 29%
Slėgis 1017 hPa
Matomumas 10 km arba daugiau
Mažai debesys ne aukštis 3000 ft, aukštai iškilę kamuoliniai debesys.

METAR: OISL 141000Z 25004KT 9999 FEW030TCU 32/12 Q1017

Laikas: 13:52 (10:22 UTC)

Prognozė

Ataskaita buvo paskelbta 4 valandos ir 52 minutes, ne 05:30 UTC
Prognozė galioja nuo 14 metu 06 UTC su 15 metu 12 UTC
Vėjas 6 kt iš Vakarų
Matomumas: 8000 m
Laikinai
nuo 14 metu 09 UTC su 14 metu 15 UTC
Matomumas: 5000 m
Išsisklaidę debesys ne aukštis 3000 ft, Liūtiniai kamuoliniai debesys.
Išsisklaidę debesys ne aukštis 3500 ft
perkūnija, lietus

TAF: OISL 140530Z 1406/1512 28006KT 8000 NSC TEMPO 1409/1415 5000 TSRA SCT030CB SCT035

Orai ataskaitas ir orų prognozės (METAR, TAF).

turimą stotys yra geltonos ir raudonos taškus žemėlapyje.

Perkelti pele per norėdami pamatyti stoties vardą.

Tada spustelėkite, norėdami matyti oro stebėjimo ir prognozės.

Norėdami pakeisti žemėlapį: spustelėkite ant žalios mygtukų su juodo kryžiaus žemyn,; žalią mygtuką su brūkšneliu, jei norite nutolinti; arba žalių rodyklių gretimoms žemėlapius.


METAR-TAF: